createdAt,value
2022-07-30T00:01:57.679Z,99166.44
2022-07-30T00:04:25.077Z,99160.31
2022-07-30T00:06:52.611Z,99164.00
2022-07-30T00:09:19.778Z,99158.03
2022-07-30T00:11:47.243Z,99152.28
2022-07-30T00:14:14.545Z,99145.47
2022-07-30T00:16:41.898Z,99143.34
2022-07-30T00:19:10.038Z,99138.97
2022-07-30T00:21:38.975Z,99134.56
2022-07-30T00:24:08.589Z,99128.19
2022-07-30T00:26:36.403Z,99133.28
2022-07-30T00:29:04.842Z,99137.13
2022-07-30T00:31:32.321Z,99131.59
2022-07-30T00:34:00.027Z,99130.56
2022-07-30T00:36:28.303Z,99137.97
2022-07-30T00:38:55.538Z,99134.06
2022-07-30T00:41:23.069Z,99134.81
2022-07-30T00:43:50.556Z,99131.75
2022-07-30T00:46:17.737Z,99125.25
2022-07-30T00:48:46.263Z,99115.59
2022-07-30T00:51:13.352Z,99111.38
2022-07-30T00:53:41.161Z,99112.75
2022-07-30T00:56:08.706Z,99103.78
2022-07-30T00:58:35.944Z,99099.06
2022-07-30T01:01:03.782Z,99101.00
2022-07-30T01:03:31.430Z,99102.59
2022-07-30T01:05:58.633Z,99103.66
2022-07-30T01:08:25.919Z,99094.41
2022-07-30T01:10:53.550Z,99099.31
2022-07-30T01:13:20.827Z,99085.81
2022-07-30T01:15:48.018Z,99087.72
2022-07-30T01:18:17.451Z,99085.81
2022-07-30T01:21:07.498Z,99083.09
2022-07-30T01:23:42.739Z,99088.91
2022-07-30T01:26:17.314Z,99073.72
2022-07-30T01:28:54.324Z,99076.41
2022-07-30T01:31:27.835Z,99079.63
2022-07-30T01:34:00.242Z,99081.63
2022-07-30T01:36:30.031Z,99081.63
2022-07-30T01:39:00.950Z,99074.59
2022-07-30T01:41:30.551Z,99065.34
2022-07-30T01:43:59.206Z,99063.16
2022-07-30T01:46:29.655Z,99068.91
2022-07-30T01:48:59.013Z,99065.25
2022-07-30T01:51:33.358Z,99061.16
2022-07-30T01:54:10.893Z,99052.94
2022-07-30T01:56:41.186Z,99052.66
2022-07-30T01:59:12.060Z,99045.38
2022-07-30T02:01:40.646Z,99043.78
2022-07-30T02:04:10.095Z,99036.75
2022-07-30T02:07:18.337Z,99034.34
2022-07-30T02:10:10.746Z,99024.28
2022-07-30T02:12:52.385Z,99035.13
2022-07-30T02:15:40.834Z,99038.94
2022-07-30T02:18:56.980Z,99030.63
2022-07-30T02:21:36.427Z,99033.94
2022-07-30T02:24:12.129Z,99032.84
2022-07-30T02:26:42.917Z,99040.16
2022-07-30T02:29:11.778Z,99039.13
2022-07-30T02:31:41.753Z,99040.75
2022-07-30T02:34:13.185Z,99041.78
2022-07-30T02:36:44.655Z,99037.44
2022-07-30T02:39:16.311Z,99037.44
2022-07-30T02:41:49.618Z,99028.78
2022-07-30T02:44:21.414Z,99036.66
2022-07-30T02:46:51.276Z,99039.44
2022-07-30T02:49:54.167Z,99034.84
2022-07-30T02:52:24.488Z,99037.00
2022-07-30T02:54:56.487Z,99037.56
2022-07-30T02:57:24.153Z,99038.72
2022-07-30T02:59:53.298Z,99032.75
2022-07-30T03:02:29.660Z,99036.03
2022-07-30T03:04:59.975Z,99036.06
2022-07-30T03:07:29.849Z,99042.53
2022-07-30T03:09:59.601Z,99039.16
2022-07-30T03:12:32.869Z,99032.94
2022-07-30T03:15:00.766Z,99034.22
2022-07-30T03:17:37.602Z,99030.66
2022-07-30T03:20:12.269Z,99025.47
2022-07-30T03:22:50.869Z,99032.22
2022-07-30T03:25:25.965Z,99027.31
2022-07-30T03:27:58.011Z,99034.84
2022-07-30T03:30:28.316Z,99030.53
2022-07-30T03:32:57.371Z,99029.72
2022-07-30T03:35:26.076Z,99046.81
2022-07-30T03:37:57.015Z,99061.94
2022-07-30T03:40:26.350Z,99064.16
2022-07-30T03:42:53.911Z,99060.63
2022-07-30T03:45:25.494Z,99066.84
2022-07-30T03:47:59.276Z,99070.69
2022-07-30T03:50:29.123Z,99065.53
2022-07-30T03:52:57.226Z,99057.13
2022-07-30T03:55:25.695Z,99058.22
2022-07-30T03:58:11.871Z,99053.91
2022-07-30T04:00:41.254Z,99062.31
2022-07-30T04:03:09.020Z,99056.06
2022-07-30T04:05:50.263Z,99058.78
2022-07-30T04:08:17.478Z,99062.63
2022-07-30T04:10:45.794Z,99062.09
2022-07-30T04:13:41.938Z,99070.22
2022-07-30T04:16:40.838Z,99064.00
2022-07-30T04:19:34.560Z,99072.63
2022-07-30T04:22:04.667Z,99079.38
2022-07-30T04:24:38.667Z,99070.75
2022-07-30T04:27:06.912Z,99080.78
2022-07-30T04:29:34.666Z,99073.44
2022-07-30T04:32:02.876Z,99075.72
2022-07-30T04:34:53.741Z,99080.06
2022-07-30T04:37:40.557Z,99073.88
2022-07-30T04:40:08.817Z,99066.00
2022-07-30T04:42:36.030Z,99065.44
2022-07-30T04:45:11.660Z,99062.13
2022-07-30T04:47:49.741Z,99063.19
2022-07-30T04:50:38.478Z,99065.84
2022-07-30T04:53:11.166Z,99073.56
2022-07-30T04:55:48.870Z,99072.94
2022-07-30T04:58:20.448Z,99075.84
2022-07-30T05:00:52.067Z,99079.63
2022-07-30T05:03:26.146Z,99075.50
2022-07-30T05:05:57.792Z,99074.72
2022-07-30T05:08:29.856Z,99085.56
2022-07-30T05:11:00.859Z,99075.72
2022-07-30T05:13:34.333Z,99073.56
2022-07-30T05:16:06.097Z,99072.97
2022-07-30T05:18:33.199Z,99072.19
2022-07-30T05:21:00.360Z,99071.34
2022-07-30T05:23:35.372Z,99071.28
2022-07-30T05:26:10.941Z,99075.59
2022-07-30T05:28:43.289Z,99081.63
2022-07-30T05:31:14.475Z,99071.75
2022-07-30T05:33:49.295Z,99068.47
2022-07-30T05:36:20.417Z,99071.88
2022-07-30T05:38:48.675Z,99081.34
2022-07-30T05:41:33.279Z,99073.72
2022-07-30T05:44:03.866Z,99078.56
2022-07-30T05:46:31.373Z,99083.41
2022-07-30T05:48:59.626Z,99084.44
2022-07-30T05:51:30.243Z,99086.28
2022-07-30T05:53:57.431Z,99081.66
2022-07-30T05:56:40.832Z,99079.47
2022-07-30T05:59:14.588Z,99084.56
2022-07-30T06:02:03.381Z,99079.34
2022-07-30T06:04:52.026Z,99073.63
2022-07-30T06:07:19.771Z,99074.94
2022-07-30T06:09:46.894Z,99076.03
2022-07-30T06:12:14.569Z,99074.66
2022-07-30T06:14:42.435Z,99072.75
2022-07-30T06:17:13.682Z,99072.75
2022-07-30T06:20:01.154Z,99068.72
2022-07-30T06:22:31.895Z,99076.28
2022-07-30T06:25:07.626Z,99068.63
2022-07-30T06:27:39.588Z,99072.97
2022-07-30T06:30:10.485Z,99083.03
2022-07-30T06:32:40.554Z,99077.88
2022-07-30T06:35:08.281Z,99073.25
2022-07-30T06:38:05.929Z,99072.16
2022-07-30T06:40:26.974Z,99063.94
2022-07-30T06:43:11.433Z,99062.75
2022-07-30T06:45:58.274Z,99052.94
2022-07-30T06:48:31.776Z,99048.50
2022-07-30T06:51:01.637Z,99052.31
2022-07-30T06:53:29.646Z,99050.13
2022-07-30T06:56:23.465Z,99058.16
2022-07-30T06:58:57.959Z,99069.03
2022-07-30T07:01:49.580Z,99059.28
2022-07-30T07:04:16.839Z,99056.00
2022-07-30T07:06:44.593Z,99060.81
2022-07-30T07:09:16.234Z,99052.06
2022-07-30T07:12:04.482Z,99052.56
2022-07-30T07:14:33.018Z,99043.34
2022-07-30T07:17:00.214Z,99047.38
2022-07-30T07:20:00.972Z,99041.63
2022-07-30T07:22:35.375Z,99049.19
2022-07-30T07:25:04.058Z,99046.38
2022-07-30T07:27:33.449Z,99050.09
2022-07-30T07:30:06.401Z,99043.00
2022-07-30T07:32:37.757Z,99033.13
2022-07-30T07:35:08.079Z,99028.72
2022-07-30T07:37:39.297Z,99028.13
2022-07-30T07:40:09.068Z,99028.34
2022-07-30T07:42:41.398Z,99015.47
2022-07-30T07:45:09.362Z,99020.50
2022-07-30T07:47:52.110Z,99013.56
2022-07-30T07:50:47.264Z,99015.38
2022-07-30T07:53:22.475Z,99015.88
2022-07-30T07:55:49.916Z,99017.78
2022-07-30T07:58:25.349Z,99013.47
2022-07-30T08:00:55.158Z,99016.69
2022-07-30T08:03:28.086Z,99025.94
2022-07-30T08:06:05.664Z,99015.47
2022-07-30T08:09:08.861Z,99019.09
2022-07-30T08:12:05.539Z,99015.06
2022-07-30T08:15:09.519Z,99018.91
2022-07-30T08:17:55.641Z,99010.81
2022-07-30T08:20:38.057Z,99001.13
2022-07-30T08:23:06.814Z,98997.72
2022-07-30T08:25:34.230Z,98998.09
2022-07-30T08:28:03.211Z,98994.66
2022-07-30T08:30:31.510Z,98997.03
2022-07-30T08:32:59.138Z,98992.34
2022-07-30T08:35:26.590Z,99000.16
2022-07-30T08:37:54.170Z,98994.19
2022-07-30T08:40:26.707Z,98993.06
2022-07-30T08:43:07.971Z,98979.38
2022-07-30T08:45:37.476Z,98985.84
2022-07-30T08:48:22.541Z,98971.53
2022-07-30T08:50:51.477Z,98960.63
2022-07-30T08:53:37.558Z,98950.88
2022-07-30T08:56:08.268Z,98962.72
2022-07-30T08:58:36.822Z,98960.84
2022-07-30T09:01:06.236Z,98970.94
2022-07-30T09:03:34.671Z,98958.75
2022-07-30T09:06:04.139Z,98952.47
2022-07-30T09:08:32.494Z,98945.88
2022-07-30T09:11:00.522Z,98931.69
2022-07-30T09:13:38.239Z,98928.44
2022-07-30T09:16:19.562Z,98926.78
2022-07-30T09:18:48.304Z,98925.09
2022-07-30T09:21:23.261Z,98930.97
2022-07-30T09:24:00.330Z,98922.72
2022-07-30T09:27:07.525Z,98918.84
2022-07-30T09:29:59.775Z,98918.41
2022-07-30T09:32:51.535Z,98917.78
2022-07-30T09:35:38.490Z,98924.56
2022-07-30T09:38:13.170Z,98932.94
2022-07-30T09:40:57.626Z,98929.06
2022-07-30T09:43:52.155Z,98933.22
2022-07-30T09:46:47.756Z,98917.78
2022-07-30T09:49:27.370Z,98908.47
2022-07-30T09:51:57.714Z,98918.28
2022-07-30T09:54:51.547Z,98913.47
2022-07-30T09:57:27.271Z,98908.06
2022-07-30T10:00:24.009Z,98899.47
2022-07-30T10:03:34.056Z,98900.22
2022-07-30T10:06:38.354Z,98890.13
2022-07-30T10:09:37.510Z,98886.53
2022-07-30T10:12:10.946Z,98887.56
2022-07-30T10:14:45.689Z,98874.94
2022-07-30T10:17:17.955Z,98871.84
2022-07-30T10:20:14.877Z,98866.69
2022-07-30T10:23:09.331Z,98864.00
2022-07-30T10:25:49.709Z,98864.50
2022-07-30T10:28:40.323Z,98860.06
2022-07-30T10:31:08.211Z,98864.41
2022-07-30T10:33:40.190Z,98859.44
2022-07-30T10:36:11.876Z,98866.28
2022-07-30T10:38:43.218Z,98853.69
2022-07-30T10:41:48.155Z,98852.88
2022-07-30T10:44:51.773Z,98848.44
2022-07-30T10:47:20.807Z,98845.66
2022-07-30T10:50:14.011Z,98841.47
2022-07-30T10:53:01.849Z,98838.19
2022-07-30T10:55:38.652Z,98841.47
2022-07-30T10:58:08.375Z,98834.47
2022-07-30T11:03:16.280Z,98827.56
2022-07-30T11:05:47.105Z,98822.84
2022-07-30T11:08:42.914Z,98814.97
2022-07-30T11:12:01.952Z,98814.19
2022-07-30T11:14:10.260Z,98811.00
2022-07-30T11:16:40.578Z,98816.94
2022-07-30T11:19:56.203Z,98810.25
2022-07-30T11:22:40.574Z,98821.25
2022-07-30T11:25:51.643Z,98821.59
2022-07-30T11:28:42.939Z,98818.38
2022-07-30T11:31:55.651Z,98817.31
2022-07-30T11:34:25.721Z,98816.56
2022-07-30T11:37:21.859Z,98807.94
2022-07-30T11:39:56.437Z,98800.88
2022-07-30T11:42:36.459Z,98792.44
2022-07-30T11:45:15.942Z,98786.81
2022-07-30T11:47:49.410Z,98786.00
2022-07-30T11:50:23.780Z,98788.00
2022-07-30T11:52:52.163Z,98778.13
2022-07-30T11:55:38.981Z,98784.81
2022-07-30T11:58:24.425Z,98775.59
2022-07-30T12:00:53.507Z,98773.69
2022-07-30T12:03:24.155Z,98772.09
2022-07-30T12:05:53.370Z,98766.84
2022-07-30T12:08:35.335Z,98769.16
2022-07-30T12:11:03.730Z,98768.34
2022-07-30T12:13:44.980Z,98765.09
2022-07-30T12:16:16.869Z,98775.53
2022-07-30T12:18:46.883Z,98780.38
2022-07-30T12:21:16.167Z,98780.72
2022-07-30T12:23:58.669Z,98786.25
2022-07-30T12:26:32.254Z,98796.00
2022-07-30T12:29:04.975Z,98799.78
2022-07-30T12:31:33.892Z,98805.97
2022-07-30T12:34:01.084Z,98801.09
2022-07-30T12:36:35.873Z,98811.16
2022-07-30T12:39:06.689Z,98811.34
2022-07-30T12:41:49.879Z,98828.03
2022-07-30T12:44:42.453Z,98836.75
2022-07-30T12:47:29.728Z,98842.66
2022-07-30T12:50:06.126Z,98848.69
2022-07-30T12:52:37.752Z,98849.97
2022-07-30T12:55:33.980Z,98856.09
2022-07-30T12:58:08.476Z,98851.47
2022-07-30T13:00:52.160Z,98849.44
2022-07-30T13:03:28.188Z,98853.84
2022-07-30T13:05:57.036Z,98850.22
2022-07-30T13:08:48.747Z,98860.69
2022-07-30T13:11:18.032Z,98861.47
2022-07-30T13:13:46.811Z,98861.47
2022-07-30T13:16:15.052Z,98866.06
2022-07-30T13:18:42.798Z,98869.25
2022-07-30T13:21:11.278Z,98863.78
2022-07-30T13:23:41.793Z,98848.03
2022-07-30T13:26:10.649Z,98851.75
2022-07-30T13:28:38.229Z,98845.38
2022-07-30T13:31:07.540Z,98841.28
2022-07-30T13:33:37.016Z,98847.59
2022-07-30T13:36:06.378Z,98844.28
2022-07-30T13:38:34.257Z,98840.47
2022-07-30T13:41:02.832Z,98846.41
2022-07-30T13:43:33.766Z,98844.56
2022-07-30T13:46:03.273Z,98841.69
2022-07-30T13:48:32.861Z,98833.44
2022-07-30T13:51:02.577Z,98831.38
2022-07-30T13:53:30.055Z,98826.50
2022-07-30T13:56:01.634Z,98828.16
2022-07-30T13:58:34.064Z,98829.81
2022-07-30T14:01:06.867Z,98828.28
2022-07-30T14:03:35.380Z,98822.47
2022-07-30T14:06:10.986Z,98822.19
2022-07-30T14:08:40.460Z,98825.47
2022-07-30T14:11:08.394Z,98813.44
2022-07-30T14:13:35.644Z,98809.75
2022-07-30T14:16:28.551Z,98813.19
2022-07-30T14:18:57.453Z,98809.06
2022-07-30T14:21:25.816Z,98805.84
2022-07-30T14:23:53.327Z,98803.13
2022-07-30T14:26:20.478Z,98800.78
2022-07-30T14:28:48.163Z,98805.78
2022-07-30T14:31:16.718Z,98803.03
2022-07-30T14:33:43.997Z,98800.50
2022-07-30T14:36:11.603Z,98803.75
2022-07-30T14:38:39.925Z,98804.94
2022-07-30T14:41:08.881Z,98806.22
2022-07-30T14:43:36.739Z,98802.38
2022-07-30T14:46:03.978Z,98801.28
2022-07-30T14:48:31.137Z,98791.81
2022-07-30T14:51:14.767Z,98796.81
2022-07-30T14:53:47.269Z,98792.31
2022-07-30T14:56:14.942Z,98788.75
2022-07-30T14:58:45.566Z,98784.25
2022-07-30T15:01:16.707Z,98791.47
2022-07-30T15:03:46.395Z,98786.34
2022-07-30T15:06:15.328Z,98793.25
2022-07-30T15:08:43.713Z,98792.44
2022-07-30T15:11:11.363Z,98798.72
2022-07-30T15:13:49.908Z,98795.53
2022-07-30T15:16:19.486Z,98801.66
2022-07-30T15:18:46.971Z,98802.34
2022-07-30T15:21:14.695Z,98808.44
2022-07-30T15:23:42.645Z,98803.63
2022-07-30T15:26:10.287Z,98801.88
2022-07-30T15:28:37.384Z,98798.81
2022-07-30T15:31:05.398Z,98803.78
2022-07-30T15:33:36.129Z,98808.44
2022-07-30T15:36:04.721Z,98806.72
2022-07-30T15:38:32.570Z,98809.91
2022-07-30T15:40:59.825Z,98803.69
2022-07-30T15:43:27.009Z,98804.97
2022-07-30T15:45:56.130Z,98801.75
2022-07-30T15:48:27.770Z,98802.56
2022-07-30T15:51:05.077Z,98799.16
2022-07-30T15:53:32.979Z,98800.94
2022-07-30T15:56:01.051Z,98802.53
2022-07-30T15:58:28.274Z,98805.91
2022-07-30T16:00:55.749Z,98803.69
2022-07-30T16:03:23.776Z,98800.94
2022-07-30T16:05:52.964Z,98798.06
2022-07-30T16:08:21.304Z,98801.91
2022-07-30T16:10:49.955Z,98798.69
2022-07-30T16:13:17.610Z,98803.53
2022-07-30T16:15:44.879Z,98794.22
2022-07-30T16:18:12.403Z,98799.34
2022-07-30T16:20:39.946Z,98795.00
2022-07-30T16:23:12.600Z,98789.56
2022-07-30T16:25:41.700Z,98783.16
2022-07-30T16:28:08.691Z,98782.19
2022-07-30T16:30:35.867Z,98782.19
2022-07-30T16:33:20.251Z,98786.66
2022-07-30T16:35:50.720Z,98791.78
2022-07-30T16:38:23.323Z,98788.25
2022-07-30T16:40:51.062Z,98784.06
2022-07-30T16:43:19.683Z,98794.50
2022-07-30T16:45:48.294Z,98786.00
2022-07-30T16:48:16.241Z,98794.00
2022-07-30T16:50:44.646Z,98788.38
2022-07-30T16:53:14.181Z,98787.09
2022-07-30T16:55:43.979Z,98796.88
2022-07-30T16:58:12.217Z,98793.19
2022-07-30T17:00:39.757Z,98801.50
2022-07-30T17:03:07.991Z,98795.25
2022-07-30T17:05:35.634Z,98795.91
2022-07-30T17:08:05.823Z,98791.38
2022-07-30T17:10:36.135Z,98797.28
2022-07-30T17:13:03.450Z,98792.41
2022-07-30T17:15:32.915Z,98796.53
2022-07-30T17:18:02.028Z,98796.81
2022-07-30T17:20:31.083Z,98795.38
2022-07-30T17:22:58.201Z,98792.31
2022-07-30T17:25:29.707Z,98796.47
2022-07-30T17:27:58.929Z,98788.78
2022-07-30T17:30:27.812Z,98790.19
2022-07-30T17:32:55.234Z,98789.63
2022-07-30T17:35:24.637Z,98800.53
2022-07-30T17:37:52.651Z,98794.88
2022-07-30T17:40:29.332Z,98801.47
2022-07-30T17:43:04.332Z,98790.09
2022-07-30T17:45:37.006Z,98793.91
2022-07-30T17:48:06.250Z,98791.19
2022-07-30T17:50:35.259Z,98786.84
2022-07-30T17:53:04.544Z,98790.09
2022-07-30T17:55:35.320Z,98789.28
2022-07-30T17:58:04.381Z,98781.75
2022-07-30T18:00:31.979Z,98793.91
2022-07-30T18:02:59.458Z,98788.34
2022-07-30T18:05:26.932Z,98785.63
2022-07-30T18:07:53.957Z,98791.06
2022-07-30T18:10:21.533Z,98782.91
2022-07-30T18:12:49.571Z,98791.34
2022-07-30T18:15:18.377Z,98788.47
2022-07-30T18:17:46.374Z,98786.06
2022-07-30T18:20:14.985Z,98786.84
2022-07-30T18:22:42.655Z,98791.53
2022-07-30T18:25:16.540Z,98790.72
2022-07-30T18:27:47.710Z,98791.81
2022-07-30T18:30:15.990Z,98789.72
2022-07-30T18:32:45.006Z,98796.09
2022-07-30T18:35:14.836Z,98787.91
2022-07-30T18:37:44.069Z,98786.34
2022-07-30T18:40:13.584Z,98784.41
2022-07-30T18:42:42.196Z,98786.94
2022-07-30T18:45:14.073Z,98789.44
2022-07-30T18:47:45.957Z,98796.50
2022-07-30T18:50:15.753Z,98789.16
2022-07-30T18:52:43.259Z,98788.34
2022-07-30T18:55:12.097Z,98791.38
2022-07-30T18:57:41.021Z,98782.41
2022-07-30T19:00:34.394Z,98791.19
2022-07-30T19:03:00.251Z,98776.50
2022-07-30T19:05:27.780Z,98780.31
2022-07-30T19:07:57.535Z,98792.28
2022-07-30T19:10:27.381Z,98780.13
2022-07-30T19:12:56.107Z,98773.91
2022-07-30T19:15:23.963Z,98779.34
2022-07-30T19:17:52.075Z,98776.75
2022-07-30T19:20:20.838Z,98774.75
2022-07-30T19:22:48.084Z,98779.81
2022-07-30T19:25:19.382Z,98782.66
2022-07-30T19:27:46.834Z,98783.72
2022-07-30T19:30:14.385Z,98773.69
2022-07-30T19:32:41.887Z,98778.13
2022-07-30T19:35:13.444Z,98776.84
2022-07-30T19:37:41.879Z,98772.31
2022-07-30T19:40:10.186Z,98776.75
2022-07-30T19:42:41.374Z,98767.91
2022-07-30T19:45:12.067Z,98766.72
2022-07-30T19:47:42.397Z,98769.31
2022-07-30T19:50:11.886Z,98772.75
2022-07-30T19:52:50.989Z,98771.66
2022-07-30T19:55:35.029Z,98780.22
2022-07-30T19:58:16.129Z,98783.94
2022-07-30T20:00:49.626Z,98784.66
2022-07-30T20:03:25.627Z,98788.97
2022-07-30T20:05:58.345Z,98779.72
2022-07-30T20:08:26.285Z,98777.22
2022-07-30T20:10:53.551Z,98778.94
2022-07-30T20:13:44.770Z,98777.22
2022-07-30T20:16:17.329Z,98779.72
2022-07-30T20:18:46.173Z,98782.94
2022-07-30T20:21:16.204Z,98777.00
2022-07-30T20:23:45.213Z,98782.84
2022-07-30T20:26:15.030Z,98786.66
2022-07-30T20:28:52.569Z,98784.47
2022-07-30T20:31:21.454Z,98786.44
2022-07-30T20:33:50.163Z,98782.63
2022-07-30T20:36:19.583Z,98785.94
2022-07-30T20:38:47.692Z,98783.94
2022-07-30T20:41:20.161Z,98782.09
2022-07-30T20:43:52.101Z,98784.81
2022-07-30T20:46:23.182Z,98780.19
2022-07-30T20:48:52.651Z,98772.97
2022-07-30T20:51:20.441Z,98782.19
2022-07-30T20:53:49.395Z,98786.66
2022-07-30T20:56:19.509Z,98780.47
2022-07-30T20:58:47.460Z,98785.00
2022-07-30T21:01:17.549Z,98781.09
2022-07-30T21:03:48.048Z,98778.56
2022-07-30T21:06:16.934Z,98776.16
2022-07-30T21:08:44.014Z,98772.97
2022-07-30T21:11:12.591Z,98779.97
2022-07-30T21:13:41.417Z,98786.22
2022-07-30T21:16:15.484Z,98782.19
2022-07-30T21:18:49.903Z,98778.38
2022-07-30T21:21:30.562Z,98776.75
2022-07-30T21:24:12.278Z,98777.56
2022-07-30T21:26:42.848Z,98790.00
2022-07-30T21:29:10.781Z,98785.19
2022-07-30T21:31:59.012Z,98778.16
2022-07-30T21:34:28.087Z,98781.56
2022-07-30T21:36:56.893Z,98768.00
2022-07-30T21:39:29.258Z,98774.31
2022-07-30T21:41:57.421Z,98770.88
2022-07-30T21:44:24.624Z,98776.00
2022-07-30T21:46:52.560Z,98769.47
2022-07-30T21:49:22.332Z,98773.50
2022-07-30T21:51:50.970Z,98766.25
2022-07-30T21:54:28.473Z,98769.88
2022-07-30T21:56:58.085Z,98777.47
2022-07-30T21:59:27.594Z,98776.38
2022-07-30T22:01:56.040Z,98780.50
2022-07-30T22:04:24.902Z,98782.13
2022-07-30T22:06:54.696Z,98774.06
2022-07-30T22:09:34.367Z,98778.69
2022-07-30T22:12:09.791Z,98777.44
2022-07-30T22:14:39.732Z,98768.00
2022-07-30T22:17:14.750Z,98771.38
2022-07-30T22:19:51.427Z,98758.94
2022-07-30T22:22:27.288Z,98762.75
2022-07-30T22:24:58.195Z,98752.31
2022-07-30T22:27:39.806Z,98763.75
2022-07-30T22:30:16.752Z,98759.13
2022-07-30T22:32:44.538Z,98755.13
2022-07-30T22:35:16.398Z,98747.06
2022-07-30T22:37:44.655Z,98750.47
2022-07-30T22:40:13.913Z,98746.78
2022-07-30T22:42:46.849Z,98744.56
2022-07-30T22:45:22.240Z,98736.97
2022-07-30T22:48:10.043Z,98747.28
2022-07-30T22:50:39.900Z,98743.16
2022-07-30T22:53:23.678Z,98740.25
2022-07-30T22:55:55.334Z,98727.31
2022-07-30T22:58:26.234Z,98726.72
2022-07-30T23:00:53.882Z,98724.66
2022-07-30T23:03:21.368Z,98735.31
2022-07-30T23:05:56.080Z,98730.66
2022-07-30T23:08:29.918Z,98732.28
2022-07-30T23:10:59.604Z,98722.63
2022-07-30T23:13:28.780Z,98715.59
2022-07-30T23:15:56.069Z,98718.81
2022-07-30T23:18:23.788Z,98719.41
2022-07-30T23:20:51.450Z,98715.31
2022-07-30T23:23:18.586Z,98715.59
2022-07-30T23:25:45.783Z,98720.00
2022-07-30T23:28:13.238Z,98708.72
2022-07-30T23:30:40.382Z,98716.50
2022-07-30T23:33:07.430Z,98708.09
2022-07-30T23:35:35.605Z,98705.50
2022-07-30T23:38:02.630Z,98710.72
2022-07-30T23:40:29.919Z,98706.69
2022-07-30T23:42:57.266Z,98708.09
2022-07-30T23:45:24.363Z,98699.81
2022-07-30T23:48:02.371Z,98698.94
2022-07-30T23:50:32.821Z,98702.38
2022-07-30T23:53:01.854Z,98700.19
2022-07-30T23:55:31.138Z,98698.34
2022-07-30T23:57:59.971Z,98701.66
